createdAt,value
2018-07-15T00:01:32.440Z,98161.16
2018-07-15T00:04:01.590Z,98157.39
2018-07-15T00:06:30.723Z,98160.29
2018-07-15T00:08:59.868Z,98163.03
2018-07-15T00:11:28.995Z,98152.11
2018-07-15T00:13:58.143Z,98155.77
2018-07-15T00:16:27.280Z,98150.70
2018-07-15T00:18:56.425Z,98155.60
2018-07-15T00:21:25.559Z,98152.86
2018-07-15T00:23:54.476Z,98146.19
2018-07-15T00:26:23.611Z,98143.23
2018-07-15T00:28:52.788Z,98144.90
2018-07-15T00:31:21.924Z,98142.70
2018-07-15T00:33:51.323Z,98141.05
2018-07-15T00:36:20.469Z,98139.38
2018-07-15T00:38:49.604Z,98137.77
2018-07-15T00:41:18.749Z,98133.58
2018-07-15T00:43:47.880Z,98130.72
2018-07-15T00:46:17.018Z,98138.72
2018-07-15T00:48:46.159Z,98137.88
2018-07-15T00:51:15.308Z,98140.26
2018-07-15T00:53:44.445Z,98138.52
2018-07-15T00:56:13.589Z,98137.43
2018-07-15T00:58:42.724Z,98131.88
2018-07-15T01:01:11.870Z,98134.31
2018-07-15T01:03:41.002Z,98132.60
2018-07-15T01:06:10.153Z,98129.03
2018-07-15T01:08:39.292Z,98122.77
2018-07-15T01:11:08.426Z,98120.05
2018-07-15T01:13:37.559Z,98128.33
2018-07-15T01:16:06.907Z,98124.28
2018-07-15T01:18:36.084Z,98127.53
2018-07-15T01:21:04.996Z,98131.66
2018-07-15T01:23:34.131Z,98122.08
2018-07-15T01:26:03.283Z,98122.30
2018-07-15T01:28:32.456Z,98130.50
2018-07-15T01:31:01.359Z,98127.26
2018-07-15T01:33:30.280Z,98130.35
2018-07-15T01:35:59.419Z,98125.44
2018-07-15T01:38:28.639Z,98123.86
2018-07-15T01:40:57.546Z,98118.94
2018-07-15T01:43:26.689Z,98119.39
2018-07-15T01:45:55.823Z,98123.44
2018-07-15T01:48:24.972Z,98114.33
2018-07-15T01:50:54.112Z,98118.70
2018-07-15T01:53:23.032Z,98118.28
2018-07-15T01:55:52.220Z,98116.00
2018-07-15T01:58:21.365Z,98110.19
2018-07-15T02:00:50.491Z,98109.64
2018-07-15T02:03:19.407Z,98101.70
2018-07-15T02:05:48.547Z,98111.13
2018-07-15T02:08:17.675Z,98102.47
2018-07-15T02:10:46.580Z,98108.36
2018-07-15T02:13:15.732Z,98111.10
2018-07-15T02:15:44.856Z,98108.05
2018-07-15T02:18:13.996Z,98105.03
2018-07-15T02:20:43.132Z,98101.98
2018-07-15T02:23:12.303Z,98104.59
2018-07-15T02:25:41.439Z,98100.56
2018-07-15T02:28:10.372Z,98105.52
2018-07-15T02:30:39.509Z,98107.08
2018-07-15T02:33:08.639Z,98105.30
2018-07-15T02:35:37.782Z,98097.57
2018-07-15T02:38:06.921Z,98105.01
2018-07-15T02:40:36.061Z,98111.58
2018-07-15T02:43:05.187Z,98104.11
2018-07-15T02:45:34.326Z,98103.89
2018-07-15T02:48:03.465Z,98103.06
2018-07-15T02:50:32.605Z,98106.97
2018-07-15T02:53:01.512Z,98102.87
2018-07-15T02:55:30.659Z,98104.73
2018-07-15T02:57:59.787Z,98100.34
2018-07-15T03:00:29.589Z,98102.11
2018-07-15T03:02:59.809Z,98111.17
2018-07-15T03:05:28.951Z,98108.03
2018-07-15T03:07:58.093Z,98106.59
2018-07-15T03:10:27.228Z,98107.88
2018-07-15T03:12:56.369Z,98107.74
2018-07-15T03:15:25.504Z,98106.23
2018-07-15T03:17:54.648Z,98107.61
2018-07-15T03:20:23.780Z,98106.91
2018-07-15T03:22:52.917Z,98108.56
2018-07-15T03:25:22.045Z,98108.83
2018-07-15T03:27:51.171Z,98110.03
2018-07-15T03:30:20.304Z,98116.10
2018-07-15T03:32:49.452Z,98114.11
2018-07-15T03:35:18.583Z,98109.08
2018-07-15T03:37:47.723Z,98108.37
2018-07-15T03:40:16.852Z,98107.06
2018-07-15T03:42:45.974Z,98105.33
2018-07-15T03:45:15.188Z,98102.74
2018-07-15T03:47:44.333Z,98102.02
2018-07-15T03:50:13.460Z,98110.05
2018-07-15T03:52:42.605Z,98107.20
2018-07-15T03:55:11.736Z,98102.83
2018-07-15T03:57:41.792Z,98100.86
2018-07-15T04:00:10.984Z,98094.55
2018-07-15T04:02:40.119Z,98101.88
2018-07-15T04:05:09.337Z,98092.53
2018-07-15T04:07:38.475Z,98099.73
2018-07-15T04:10:07.603Z,98097.71
2018-07-15T04:12:36.760Z,98099.47
2018-07-15T04:15:05.903Z,98101.25
2018-07-15T04:17:35.028Z,98101.44
2018-07-15T04:20:04.256Z,98098.07
2018-07-15T04:22:33.379Z,98103.42
2018-07-15T04:25:02.520Z,98100.41
2018-07-15T04:27:31.434Z,98096.72
2018-07-15T04:30:00.600Z,98095.66
2018-07-15T04:32:29.740Z,98095.83
2018-07-15T04:34:58.900Z,98091.97
2018-07-15T04:37:28.125Z,98101.37
2018-07-15T04:39:57.283Z,98096.46
2018-07-15T04:42:26.424Z,98097.35
2018-07-15T04:44:55.558Z,98094.02
2018-07-15T04:47:24.696Z,98096.14
2018-07-15T04:49:53.867Z,98095.98
2018-07-15T04:52:23.000Z,98093.34
2018-07-15T04:54:52.144Z,98099.64
2018-07-15T04:57:21.279Z,98092.97
2018-07-15T04:59:50.419Z,98097.16
2018-07-15T05:02:19.547Z,98100.08
2018-07-15T05:04:48.703Z,98104.44
2018-07-15T05:07:17.839Z,98104.41
2018-07-15T05:09:46.964Z,98104.34
2018-07-15T05:12:16.112Z,98102.11
2018-07-15T05:14:45.235Z,98102.78
2018-07-15T05:17:14.164Z,98100.73
2018-07-15T05:19:43.304Z,98100.21
2018-07-15T05:22:12.615Z,98105.95
2018-07-15T05:24:41.840Z,98106.27
2018-07-15T05:27:10.979Z,98105.27
2018-07-15T05:29:40.132Z,98105.08
2018-07-15T05:32:09.276Z,98100.75
2018-07-15T05:34:38.410Z,98101.15
2018-07-15T05:37:07.348Z,98100.01
2018-07-15T05:39:36.485Z,98106.52
2018-07-15T05:42:05.398Z,98099.94
2018-07-15T05:44:34.535Z,98100.11
2018-07-15T05:47:03.715Z,98104.55
2018-07-15T05:49:32.848Z,98109.13
2018-07-15T05:52:02.089Z,98111.63
2018-07-15T05:54:31.240Z,98117.09
2018-07-15T05:57:00.384Z,98113.45
2018-07-15T05:59:29.524Z,98114.87
2018-07-15T06:01:58.676Z,98115.94
2018-07-15T06:04:27.817Z,98114.67
2018-07-15T06:06:56.972Z,98115.69
2018-07-15T06:09:26.106Z,98116.95
2018-07-15T06:11:55.266Z,98115.06
2018-07-15T06:14:24.404Z,98120.46
2018-07-15T06:16:53.584Z,98116.19
2018-07-15T06:19:22.695Z,98125.24
2018-07-15T06:21:51.853Z,98128.70
2018-07-15T06:24:26.500Z,98128.75
2018-07-15T06:26:55.755Z,98128.84
2018-07-15T06:29:24.672Z,98121.87
2018-07-15T06:31:53.850Z,98128.77
2018-07-15T06:34:23.344Z,98140.41
2018-07-15T06:36:52.486Z,98136.73
2018-07-15T06:39:21.657Z,98143.23
2018-07-15T06:41:50.794Z,98139.52
2018-07-15T06:44:19.953Z,98141.61
2018-07-15T06:46:49.108Z,98142.55
2018-07-15T06:49:18.303Z,98145.62
2018-07-15T06:51:47.424Z,98141.53
2018-07-15T06:54:16.833Z,98134.20
2018-07-15T06:56:45.989Z,98138.25
2018-07-15T06:59:15.157Z,98134.25
2018-07-15T07:01:44.303Z,98131.69
2018-07-15T07:04:13.460Z,98136.42
2018-07-15T07:06:42.607Z,98137.16
2018-07-15T07:09:11.781Z,98131.93
2018-07-15T07:11:40.929Z,98134.82
2018-07-15T07:14:10.077Z,98133.34
2018-07-15T07:16:39.258Z,98132.98
2018-07-15T07:19:08.414Z,98137.44
2018-07-15T07:21:37.580Z,98133.98
2018-07-15T07:24:06.801Z,98136.99
2018-07-15T07:26:35.979Z,98136.80
2018-07-15T07:29:04.912Z,98132.47
2018-07-15T07:31:34.090Z,98134.06
2018-07-15T07:34:03.252Z,98132.87
2018-07-15T07:36:32.416Z,98139.63
2018-07-15T07:39:01.595Z,98128.55
2018-07-15T07:41:30.781Z,98139.54
2018-07-15T07:43:59.972Z,98134.22
2018-07-15T07:46:29.144Z,98134.03
2018-07-15T07:48:58.305Z,98129.23
2018-07-15T07:51:27.475Z,98126.41
2018-07-15T07:53:56.645Z,98120.78
2018-07-15T07:56:25.792Z,98122.28
2018-07-15T07:58:54.949Z,98119.20
2018-07-15T08:01:24.200Z,98117.24
2018-07-15T08:03:53.354Z,98120.90
2018-07-15T08:06:22.558Z,98116.80
2018-07-15T08:08:51.712Z,98121.03
2018-07-15T08:11:20.864Z,98124.76
2018-07-15T08:13:50.614Z,98120.92
2018-07-15T08:16:19.761Z,98116.89
2018-07-15T08:18:48.934Z,98115.94
2018-07-15T08:21:17.843Z,98119.02
2018-07-15T08:23:47.032Z,98118.59
2018-07-15T08:26:16.192Z,98108.97
2018-07-15T08:28:45.373Z,98113.79
2018-07-15T08:31:16.662Z,98101.19
2018-07-15T08:33:45.588Z,98106.76
2018-07-15T08:39:11.948Z,98103.04
2018-07-15T08:41:41.125Z,98099.62
2018-07-15T08:44:10.303Z,98102.72
2018-07-15T08:46:39.480Z,98105.92
2018-07-15T08:49:08.674Z,98102.59
2018-07-15T08:51:37.850Z,98101.91
2018-07-15T08:54:07.091Z,98100.90
2018-07-15T08:56:36.048Z,98100.42
2018-07-15T08:59:05.236Z,98097.38
2018-07-15T09:01:34.419Z,98097.06
2018-07-15T09:04:03.616Z,98096.80
2018-07-15T09:06:32.805Z,98093.45
2018-07-15T09:09:01.990Z,98087.61
2018-07-15T09:11:31.188Z,98086.92
2018-07-15T09:14:00.368Z,98084.97
2018-07-15T09:16:29.560Z,98088.66
2018-07-15T09:18:58.746Z,98090.14
2018-07-15T09:21:27.937Z,98085.99
2018-07-15T09:23:57.116Z,98083.13
2018-07-15T09:26:26.303Z,98081.75
2018-07-15T09:28:55.483Z,98084.68
2018-07-15T09:31:24.684Z,98077.24
2018-07-15T09:33:53.880Z,98078.77
2018-07-15T09:36:23.064Z,98077.36
2018-07-15T09:38:52.261Z,98071.73
2018-07-15T09:41:21.439Z,98074.85
2018-07-15T09:43:50.632Z,98070.98
2018-07-15T09:46:19.892Z,98080.28
2018-07-15T09:48:49.072Z,98069.28
2018-07-15T09:51:18.264Z,98070.03
2018-07-15T09:53:47.448Z,98072.74
2018-07-15T09:56:16.657Z,98067.83
2018-07-15T09:58:45.879Z,98067.92
2018-07-15T10:01:15.061Z,98065.63
2018-07-15T10:03:44.248Z,98062.63
2018-07-15T10:06:13.437Z,98057.00
2018-07-15T10:08:42.624Z,98057.83
2018-07-15T10:11:11.807Z,98048.00
2018-07-15T10:13:40.993Z,98046.55
2018-07-15T10:16:10.201Z,98043.13
2018-07-15T10:18:39.150Z,98041.13
2018-07-15T10:21:08.333Z,98029.86
2018-07-15T10:23:37.518Z,98033.57
2018-07-15T10:26:06.695Z,98035.31
2018-07-15T10:28:35.889Z,98040.14
2018-07-15T10:31:05.121Z,98023.91
2018-07-15T10:33:34.338Z,98022.60
2018-07-15T10:36:03.518Z,98015.42
2018-07-15T10:38:32.708Z,98015.10
2018-07-15T10:41:01.895Z,98010.74
2018-07-15T10:43:31.090Z,98001.30
2018-07-15T10:46:00.286Z,97999.97
2018-07-15T10:48:29.502Z,98004.82
2018-07-15T10:50:58.685Z,97999.27
2018-07-15T10:53:27.878Z,97995.69
2018-07-15T10:55:57.059Z,97990.37
2018-07-15T10:58:26.240Z,97984.83
2018-07-15T11:00:55.433Z,97993.02
2018-07-15T11:03:24.623Z,97990.09
2018-07-15T11:05:53.787Z,97985.34
2018-07-15T11:08:22.946Z,97975.85
2018-07-15T11:10:52.105Z,97977.23
2018-07-15T11:13:21.263Z,97972.03
2018-07-15T11:15:50.426Z,97976.50
2018-07-15T11:18:19.591Z,97977.21
2018-07-15T11:20:48.747Z,97979.15
2018-07-15T11:23:17.904Z,97978.98
2018-07-15T11:25:46.840Z,97977.50
2018-07-15T11:28:15.987Z,97966.22
2018-07-15T11:30:45.199Z,97971.16
2018-07-15T11:33:14.287Z,97970.05
2018-07-15T11:35:43.220Z,97968.83
2018-07-15T11:38:12.364Z,97955.03
2018-07-15T11:40:41.509Z,97959.15
2018-07-15T11:43:10.656Z,97953.22
2018-07-15T11:45:39.819Z,97953.33
2018-07-15T11:48:09.027Z,97954.18
2018-07-15T11:50:38.143Z,97945.27
2018-07-15T11:53:07.319Z,97939.40
2018-07-15T11:55:36.481Z,97932.09
2018-07-15T11:58:05.673Z,97934.86
2018-07-15T12:00:34.807Z,97934.05
2018-07-15T12:03:03.969Z,97924.31
2018-07-15T12:05:33.126Z,97929.06
2018-07-15T12:08:02.275Z,97919.89
2018-07-15T12:10:31.453Z,97918.17
2018-07-15T12:13:00.625Z,97918.39
2018-07-15T12:15:29.635Z,97925.06
2018-07-15T12:17:58.833Z,97921.84
2018-07-15T12:20:28.027Z,97920.02
2018-07-15T12:22:57.136Z,97915.66
2018-07-15T12:25:26.280Z,97920.58
2018-07-15T12:27:55.428Z,97920.43
2018-07-15T12:30:24.583Z,97927.95
2018-07-15T12:32:53.748Z,97911.03
2018-07-15T12:35:22.892Z,97930.44
2018-07-15T12:37:52.078Z,97945.19
2018-07-15T12:40:21.240Z,97927.87
2018-07-15T12:42:50.407Z,97948.36
2018-07-15T12:45:19.812Z,97945.05
2018-07-15T12:47:48.965Z,97940.65
2018-07-15T12:50:18.124Z,97938.25
2018-07-15T12:52:47.272Z,97929.72
2018-07-15T12:55:16.423Z,97922.33
2018-07-15T12:57:45.581Z,97909.11
2018-07-15T13:00:14.736Z,97909.26
2018-07-15T13:02:43.915Z,97900.44
2018-07-15T13:05:13.068Z,97894.12
2018-07-15T13:07:42.316Z,97902.45
2018-07-15T13:10:11.475Z,97925.81
2018-07-15T13:12:40.611Z,97923.89
2018-07-15T13:15:09.776Z,97933.28
2018-07-15T13:17:39.001Z,97933.17
2018-07-15T13:20:08.167Z,97934.80
2018-07-15T13:22:37.320Z,97943.27
2018-07-15T13:25:06.474Z,97941.17
2018-07-15T13:27:35.632Z,97939.52
2018-07-15T13:30:04.652Z,97940.18
2018-07-15T13:32:33.805Z,97941.72
2018-07-15T13:35:02.965Z,97942.19
2018-07-15T13:37:32.126Z,97939.69
2018-07-15T13:40:01.293Z,97927.53
2018-07-15T13:42:30.477Z,97930.57
2018-07-15T13:44:59.672Z,97925.03
2018-07-15T13:47:28.847Z,97916.88
2018-07-15T13:49:58.029Z,97915.33
2018-07-15T13:52:27.213Z,97905.02
2018-07-15T13:54:56.393Z,97908.21
2018-07-15T13:57:25.597Z,97901.26
2018-07-15T13:59:54.776Z,97908.16
2018-07-15T14:02:23.967Z,97907.41
2018-07-15T14:04:53.172Z,97911.41
2018-07-15T14:07:22.396Z,97913.88
2018-07-15T14:09:51.579Z,97910.27
2018-07-15T14:12:20.522Z,97910.10
2018-07-15T14:14:49.699Z,97906.77
2018-07-15T14:17:18.895Z,97914.71
2018-07-15T14:19:48.066Z,97914.95
2018-07-15T14:22:17.264Z,97910.44
2018-07-15T14:24:46.464Z,97914.98
2018-07-15T14:27:15.407Z,97915.91
2018-07-15T14:29:44.598Z,97919.41
2018-07-15T14:32:13.792Z,97904.34
2018-07-15T14:34:42.972Z,97899.66
2018-07-15T14:37:12.182Z,97900.91
2018-07-15T14:39:41.731Z,97909.77
2018-07-15T14:42:10.942Z,97908.27
2018-07-15T14:44:40.523Z,97916.40
2018-07-15T14:47:09.736Z,97916.66
2018-07-15T14:49:38.920Z,97913.02
2018-07-15T14:52:08.125Z,97918.77
2018-07-15T14:54:37.317Z,97918.77
2018-07-15T14:57:06.501Z,97921.38
2018-07-15T14:59:35.692Z,97917.22
2018-07-15T15:02:04.903Z,97916.30
2018-07-15T15:04:34.116Z,97911.23
2018-07-15T15:07:03.325Z,97911.88
2018-07-15T15:09:32.369Z,97906.26
2018-07-15T15:12:01.540Z,97919.85
2018-07-15T15:14:30.739Z,97909.80
2018-07-15T15:16:59.932Z,97916.43
2018-07-15T15:19:29.119Z,97920.55
2018-07-15T15:21:58.303Z,97924.72
2018-07-15T15:24:27.485Z,97915.42
2018-07-15T15:26:56.663Z,97911.08
2018-07-15T15:29:26.653Z,97923.23
2018-07-15T15:31:55.836Z,97922.81
2018-07-15T15:34:25.045Z,97925.06
2018-07-15T15:36:54.236Z,97926.48
2018-07-15T15:39:23.411Z,97930.85
2018-07-15T15:41:52.600Z,97932.08
2018-07-15T15:44:21.771Z,97933.49
2018-07-15T15:46:50.961Z,97931.81
2018-07-15T15:49:20.146Z,97925.47
2018-07-15T15:51:49.336Z,97920.01
2018-07-15T15:54:18.572Z,97921.88
2018-07-15T15:56:47.835Z,97920.31
2018-07-15T15:59:17.011Z,97922.16
2018-07-15T16:01:46.209Z,97926.02
2018-07-15T16:04:15.397Z,97924.52
2018-07-15T16:06:44.443Z,97922.88
2018-07-15T16:09:13.632Z,97920.87
2018-07-15T16:11:42.816Z,97928.41
2018-07-15T16:14:12.004Z,97921.99
2018-07-15T16:16:41.263Z,97938.45
2018-07-15T16:19:10.377Z,97939.18
2018-07-15T16:21:39.569Z,97935.49
2018-07-15T16:24:08.548Z,97925.98
2018-07-15T16:26:37.743Z,97919.08
2018-07-15T16:29:07.040Z,97918.41
2018-07-15T16:31:36.317Z,97923.05
2018-07-15T16:34:05.536Z,97923.31
2018-07-15T16:36:34.672Z,97918.30
2018-07-15T16:39:04.707Z,97914.17
2018-07-15T16:41:33.905Z,97912.48
2018-07-15T16:44:03.088Z,97917.02
2018-07-15T16:46:32.272Z,97914.34
2018-07-15T16:49:01.472Z,97914.14
2018-07-15T16:51:30.666Z,97900.95
2018-07-15T16:53:59.853Z,97894.78
2018-07-15T16:56:29.032Z,97898.80
2018-07-15T16:58:58.230Z,97885.98
2018-07-15T17:01:27.415Z,97888.77
2018-07-15T17:03:56.592Z,97891.07
2018-07-15T17:06:25.767Z,97884.48
2018-07-15T17:08:54.948Z,97878.56
2018-07-15T17:11:24.144Z,97875.47
2018-07-15T17:13:53.345Z,97876.69
2018-07-15T17:16:22.536Z,97880.70
2018-07-15T17:18:51.715Z,97889.27
2018-07-15T17:21:20.894Z,97885.67
2018-07-15T17:23:50.074Z,97890.05
2018-07-15T17:26:19.268Z,97900.20
2018-07-15T17:28:48.460Z,97904.32
2018-07-15T17:31:17.748Z,97904.17
2018-07-15T17:33:46.985Z,97909.98
2018-07-15T17:36:16.166Z,97925.43
2018-07-15T17:38:45.336Z,97927.84
2018-07-15T17:41:14.527Z,97928.36
2018-07-15T17:43:44.197Z,97931.50
2018-07-15T17:46:13.411Z,97935.92
2018-07-15T17:48:42.575Z,97923.91
2018-07-15T17:51:11.756Z,97925.02
2018-07-15T17:53:40.945Z,97926.26
2018-07-15T17:56:10.129Z,97929.00
2018-07-15T17:58:39.430Z,97922.14
2018-07-15T18:01:08.544Z,97916.84
2018-07-15T18:03:37.720Z,97914.89
2018-07-15T18:06:06.945Z,97904.45
2018-07-15T18:08:36.127Z,97912.09
2018-07-15T18:11:05.339Z,97911.28
2018-07-15T18:13:34.553Z,97911.05
2018-07-15T18:16:03.818Z,97906.13
2018-07-15T18:18:32.966Z,97907.93
2018-07-15T18:21:02.155Z,97899.02
2018-07-15T18:23:31.345Z,97899.23
2018-07-15T18:26:00.535Z,97900.45
2018-07-15T18:28:29.725Z,97896.44
2018-07-15T18:30:58.911Z,97893.55
2018-07-15T18:33:28.118Z,97891.80
2018-07-15T18:35:57.297Z,97899.48
2018-07-15T18:38:26.591Z,97895.55
2018-07-15T18:40:55.877Z,97899.58
2018-07-15T18:43:25.617Z,97890.83
2018-07-15T18:45:54.748Z,97890.62
2018-07-15T18:48:24.090Z,97891.38
2018-07-15T18:50:53.277Z,97888.34
2018-07-15T18:53:22.498Z,97895.41
2018-07-15T18:55:51.704Z,97897.20
2018-07-15T18:58:21.036Z,97896.95
2018-07-15T19:00:50.247Z,97894.78
2018-07-15T19:03:19.307Z,97899.63
2018-07-15T19:05:48.750Z,97896.66
2018-07-15T19:08:17.672Z,97901.22
2018-07-15T19:10:47.028Z,97898.55
2018-07-15T19:13:16.276Z,97902.56
2018-07-15T19:15:45.550Z,97897.41
2018-07-15T19:18:14.890Z,97897.93
2018-07-15T19:20:44.172Z,97899.36
2018-07-15T19:23:13.485Z,97893.08
2018-07-15T19:25:42.875Z,97902.46
2018-07-15T19:28:12.093Z,97914.81
2018-07-15T19:30:41.267Z,97929.33
2018-07-15T19:33:10.452Z,97929.91
2018-07-15T19:35:39.667Z,97916.22
2018-07-15T19:38:08.857Z,97911.36
2018-07-15T19:40:38.135Z,97915.08
2018-07-15T19:43:07.389Z,97923.31
2018-07-15T19:45:36.678Z,97922.94
2018-07-15T19:48:06.077Z,97925.02
2018-07-15T19:50:35.337Z,97922.88
2018-07-15T19:53:04.238Z,97927.52
2018-07-15T19:55:33.432Z,97940.92
2018-07-15T19:58:02.712Z,97953.35
2018-07-15T20:00:31.672Z,97959.18
2018-07-15T20:03:01.203Z,97952.99
2018-07-15T20:05:30.404Z,97944.39
2018-07-15T20:07:59.332Z,97944.17
2018-07-15T20:10:29.013Z,97943.02
2018-07-15T20:12:58.423Z,97949.72
2018-07-15T20:15:27.614Z,97963.22
2018-07-15T20:17:57.106Z,97963.78
2018-07-15T20:20:26.264Z,97969.25
2018-07-15T20:22:55.640Z,97965.02
2018-07-15T20:25:24.940Z,97966.86
2018-07-15T20:27:54.179Z,97958.31
2018-07-15T20:30:23.524Z,97969.11
2018-07-15T20:32:52.883Z,97971.71
2018-07-15T20:35:22.120Z,97976.45
2018-07-15T20:37:51.311Z,97977.36
2018-07-15T20:40:20.243Z,97978.27
2018-07-15T20:42:49.397Z,97977.68
2018-07-15T20:45:18.714Z,97974.92
2018-07-15T20:47:48.076Z,97977.09
2018-07-15T20:50:17.400Z,97970.84
2018-07-15T20:52:46.630Z,97979.15
2018-07-15T20:55:15.896Z,97982.68
2018-07-15T20:57:45.149Z,97980.24
2018-07-15T21:00:14.444Z,97985.47
2018-07-15T21:02:43.641Z,97983.72
2018-07-15T21:05:12.763Z,97967.47
2018-07-15T21:07:41.960Z,97974.37
2018-07-15T21:10:11.131Z,97971.15
2018-07-15T21:12:40.327Z,97977.05
2018-07-15T21:15:09.526Z,97977.89
2018-07-15T21:17:38.704Z,97983.14
2018-07-15T21:20:07.908Z,97992.08
2018-07-15T21:22:37.093Z,97993.83
2018-07-15T21:25:06.284Z,97992.95
2018-07-15T21:27:35.468Z,97989.67
2018-07-15T21:30:04.399Z,97987.09
2018-07-15T21:32:33.753Z,97990.40
2018-07-15T21:35:02.695Z,97992.70
2018-07-15T21:37:31.879Z,97989.02
2018-07-15T21:40:01.057Z,97989.13
2018-07-15T21:42:30.336Z,97990.13
2018-07-15T21:44:59.518Z,97987.57
2018-07-15T21:47:28.700Z,97993.00
2018-07-15T21:49:57.871Z,97989.33
2018-07-15T21:52:27.063Z,97992.70
2018-07-15T21:54:56.227Z,97990.63
2018-07-15T21:57:25.200Z,97995.05
2018-07-15T21:59:54.384Z,97989.73
2018-07-15T22:02:23.568Z,97993.52
2018-07-15T22:04:52.757Z,97994.80
2018-07-15T22:07:38.949Z,97994.76
2018-07-15T22:10:29.707Z,97993.97
2018-07-15T22:12:58.871Z,97993.86
2018-07-15T22:15:28.044Z,97997.66
2018-07-15T22:17:57.240Z,97994.64
2018-07-15T22:20:26.436Z,97997.32
2018-07-15T22:22:55.628Z,97998.67
2018-07-15T22:25:24.822Z,97997.55
2018-07-15T22:27:53.997Z,97996.87
2018-07-15T22:30:22.997Z,97997.66
2018-07-15T22:32:52.181Z,97992.14
2018-07-15T22:35:21.138Z,97988.34
2018-07-15T22:37:50.324Z,97991.50
2018-07-15T22:40:19.528Z,97986.55
2018-07-15T22:42:48.704Z,97991.01
2018-07-15T22:45:17.896Z,97993.81
2018-07-15T22:47:47.105Z,97991.97
2018-07-15T22:50:16.290Z,97990.69
2018-07-15T22:52:45.477Z,97991.30
2018-07-15T22:55:14.672Z,97990.01
2018-07-15T22:57:43.881Z,97996.11
2018-07-15T23:00:13.142Z,97995.05
2018-07-15T23:02:42.333Z,97998.22
2018-07-15T23:05:56.976Z,97999.84
2018-07-15T23:08:27.327Z,98005.70
2018-07-15T23:10:56.543Z,98004.64
2018-07-15T23:13:25.743Z,98006.08
2018-07-15T23:15:54.938Z,98000.45
2018-07-15T23:18:24.126Z,97998.27
2018-07-15T23:20:53.070Z,97998.66
2018-07-15T23:23:22.255Z,97997.30
2018-07-15T23:25:51.454Z,97993.98
2018-07-15T23:28:20.641Z,97999.50
2018-07-15T23:30:49.823Z,97998.48
2018-07-15T23:33:19.008Z,97995.13
2018-07-15T23:35:48.196Z,97990.95
2018-07-15T23:38:17.396Z,97987.44
2018-07-15T23:40:46.582Z,97990.34
2018-07-15T23:43:15.778Z,97986.91
2018-07-15T23:45:44.956Z,97984.23
2018-07-15T23:48:14.148Z,97982.20
2018-07-15T23:50:43.332Z,97985.48
2018-07-15T23:53:12.549Z,97979.52
2018-07-15T23:55:41.745Z,97984.31
2018-07-15T23:58:10.949Z,97983.94
